(°C)
-2°
-2°
-2°
-2°
-2°
-2°
-2°
(°C)
-8°
-8°
-8°
-8°
-8°
-7°
-7°
VJV
VJV
VJV
VJV
VJV
VJV
VJV
(km/h)
16-33
16-33
16-32
16-32
16-31
16-29
16-30
(mm)
0
0
0.4
0
0
0
0
(%)
16
43
66
57
70
71
77

Sluneční výška

/ 12.3°
sun-icon
UV 0
07:39
16:22
Ubývající měsíc (244°)
00:00
24:00

METAR pro 64.6°S 40.72°V (ULAA)

Čas Podmínky Teplota/
Rosný bod
Vítr Viditelnost Počasí Oblaky Tlak Změna Nezpracované
IFR -2°C / -4°C 120º variable 090º to 160º 6kt >10km - Overcast 900ft 1008 No Significant change. Runway 08: Frozen ridges, 11-25% contamination with 3mm, friction coefficient 0.50. ULAA 260930Z 12003MPS 090V160 9999 OVC009 M02/M04 Q1008 R08/920350 NOSIG RMK QFE755/1007
IFR -2°C / -4°C 120º variable 080º to 150º 8kt >10km - Broken Clouds 900ft 1008 No Significant change. Runway 08: Frozen ridges, 11-25% contamination with 3mm, friction coefficient 0.50. ULAA 260900Z 12004MPS 080V150 9999 BKN009 M02/M04 Q1008 R08/920350 NOSIG RMK QFE755/1007
IFR -3°C / -4°C 120º variable 080º to 150º 8kt >10km - Broken Clouds 900ft 1008 No Significant change. Runway 08: Frozen ridges, 11-25% contamination with 3mm, friction coefficient 0.50. ULAA 260830Z 12004MPS 080V150 9999 BKN009 M03/M04 Q1008 R08/920350 NOSIG RMK QFE755/1007
IFR -3°C / -4°C 130º variable 090º to 160º 6kt >10km - Broken Clouds 900ft 1009 No Significant change. Runway 08: Frozen ridges, 11-25% contamination with 3mm, friction coefficient 0.50. ULAA 260800Z 13003MPS 090V160 9999 BKN009 M03/M04 Q1009 R08/920350 NOSIG RMK QFE755/1007
IFR -3°C / -5°C 120º variable 100º to 160º 6kt >10km - Broken Clouds 900ft 1009 No Significant change. Runway 08: Frozen ridges, 11-25% contamination with 3mm, friction coefficient 0.50. ULAA 260730Z 12003MPS 100V160 9999 BKN009 M03/M05 Q1009 R08/920350 NOSIG RMK QFE755/1007
MVFR -3°C / -5°C 120º variable 080º to 150º 6kt >10km - Broken Clouds 1100ft 1009 No Significant change. Runway 08: Frozen ridges, 11-25% contamination with 3mm, friction coefficient 0.50. ULAA 260700Z 12003MPS 080V150 9999 BKN011 M03/M05 Q1009 R08/920350 NOSIG RMK QFE755/1007
VFR -4°C / -5°C 110º 6kt >10km - Scattered Clouds 1000ft 1009 No Significant change. Runway 08: Frozen ridges, 11-25% contamination with 3mm, friction coefficient 0.50. ULAA 260630Z 11003MPS 9999 SCT010 M04/M05 Q1009 R08/920350 NOSIG RMK QFE755/1007
VFR -4°C / -5°C 100º 4kt >10km - Few Clouds 3000ft 1009 No Significant change. Runway 08: Wet snow, 26-50% contamination with 1mm, friction coefficient 0.47. ULAA 260600Z 10002MPS 9999 FEW030 M04/M05 Q1009 R08/550147 NOSIG RMK QFE755/1007
VFR -5°C / -6°C 110º 4kt >10km - Few Clouds 3000ft 1009 No Significant change. Runway 08: Wet snow, 26-50% contamination with 1mm, friction coefficient 0.47. ULAA 260530Z 11002MPS 9999 FEW030 M05/M06 Q1009 R08/550147 NOSIG RMK QFE756/1008
VFR -5°C / -6°C 110º variable 080º to 140º 4kt >10km - Few Clouds 3000ft 1009 No Significant change. Runway 08: Wet snow, 26-50% contamination with 1mm, friction coefficient 0.47. ULAA 260500Z 11002MPS 080V140 9999 FEW030 M05/M06 Q1009 R08/550147 NOSIG RMK QFE756/1008
VFR -6°C / -7°C 100º 4kt >10km - Few Clouds 2000ft 1009 No Significant change. Runway 08: Wet snow, 26-50% contamination with 1mm, friction coefficient 0.47. ULAA 260430Z 10002MPS 9999 FEW020 M06/M07 Q1009 R08/550147 NOSIG RMK QFE756/1008
VFR -6°C / -7°C 80º 4kt >10km - Few Clouds 2000ft 1009 No Significant change. Runway 08: Wet snow, 26-50% contamination with 1mm, friction coefficient 0.47. ULAA 260400Z 08002MPS 9999 FEW020 M06/M07 Q1009 R08/550147 NOSIG RMK QFE756/1008
VFR -5°C / -6°C 100º 4kt >10km - Few Clouds 2000ft 1009 No Significant change. Runway 08: Wet snow, 51-100% contamination with 1mm, friction coefficient 0.45. ULAA 260330Z 10002MPS 9999 FEW020 M05/M06 Q1009 R08/590145 NOSIG RMK QFE756/1008
VFR -4°C / -5°C 110º 6kt >10km - Few Clouds 2000ft 1009 No Significant change. Runway 08: Wet snow, 51-100% contamination with 1mm, friction coefficient 0.45. ULAA 260300Z 11003MPS 9999 FEW020 M04/M05 Q1009 R08/590145 NOSIG RMK QFE756/1008
VFR -4°C / -5°C 100º variable 080º to 170º 6kt >10km - Scattered Clouds 2000ft 1010 No Significant change. Runway 08: Wet snow, 51-100% contamination with 1mm, friction coefficient 0.45. ULAA 260230Z 10003MPS 080V170 9999 SCT020 M04/M05 Q1010 R08/590145 NOSIG RMK QFE756/1008
VFR -4°C / -5°C 100º 6kt >10km - Scattered Clouds 2000ft 1010 No Significant change. Runway 08: Wet snow, 51-100% contamination with 1mm, friction coefficient 0.45. ULAA 260200Z 10003MPS 9999 SCT020 M04/M05 Q1010 R08/590145 NOSIG RMK QFE756/1009
MVFR -4°C / -5°C 110º 6kt 8000m Light Snow 1.00mm precipitation Vertical Visibility of 0ft. 1010 No Significant change. Runway 08: Wet snow, 51-100% contamination with 1mm, friction coefficient 0.45. ULAA 260130Z 11003MPS 8000 -SN OVC014 M04/M05 Q1010 R08/590145 NOSIG RMK QFE756/1009
MVFR -4°C / -5°C 110º 6kt >10km Light Snow 1.00mm precipitation Vertical Visibility of 0ft. 1010 No Significant change. Runway 08: Wet snow, 51-100% contamination with 1mm, friction coefficient 0.45. ULAA 260100Z 11003MPS 9999 -SN OVC018 M04/M05 Q1010 R08/590145 NOSIG RMK QFE757/1009
MVFR -4°C / -5°C 100º variable 070º to 200º 6kt >10km Light Snow 1.00mm precipitation Vertical Visibility of 0ft. 1010 No Significant change. Runway 08: Frozen ridges, 11-25% contamination with 3mm, friction coefficient 0.50. ULAA 260030Z 10003MPS 070V200 9999 -SN OVC020 M04/M05 Q1010 R08/920350 NOSIG RMK QFE757/1009
MVFR -4°C / -5°C 100º variable 060º to 130º 6kt >10km - Overcast 2100ft 1010 No Significant change. Runway 08: Frozen ridges, 11-25% contamination with 3mm, friction coefficient 0.50. ULAA 260000Z 10003MPS 060V130 9999 OVC021 M04/M05 Q1010 R08/920350 NOSIG RMK QFE757/1009
VFR -4°C / -5°C 80º 6kt >10km - Scattered Clouds 2600ft 1010 No Significant change. Runway 08: Frozen ridges, 11-25% contamination with 3mm, friction coefficient 0.50. ULAA 252330Z 08003MPS 9999 SCT026 M04/M05 Q1010 R08/920350 NOSIG RMK QFE757/1009
VFR -4°C / -5°C 90º variable 070º to 130º 6kt >10km - Scattered Clouds 2600ft 1010 No Significant change. Runway 08: Frozen ridges, 11-25% contamination with 3mm, friction coefficient 0.50. ULAA 252300Z 09003MPS 070V130 9999 SCT026 M04/M05 Q1010 R08/920350 NOSIG RMK QFE757/1009
VFR -4°C / -5°C 100º 6kt >10km - Scattered Clouds 2600ft 1011 No Significant change. Runway 08: Frozen ridges, 11-25% contamination with 3mm, friction coefficient 0.50. ULAA 252230Z 10003MPS 9999 SCT026 M04/M05 Q1011 R08/920350 NOSIG RMK QFE757/1010
VFR -4°C / -5°C 90º 4kt >10km - Scattered Clouds 2600ft 1011 No Significant change. Runway 08: Frozen ridges, 11-25% contamination with 3mm, friction coefficient 0.50. ULAA 252200Z 09002MPS 9999 SCT026 M04/M05 Q1011 R08/920350 NOSIG RMK QFE757/1010

IFR

-2°C / -4°C

[Víc]
Vítr 120º variable 090º to 160º 6kt
Viditelnost >10km
Počasí -
Oblaky Overcast 900ft
Tlak 1008
Změna No Significant change. Runway 08: Frozen ridges, 11-25% contamination with 3mm, friction coefficient 0.50.
Nezpracované ULAA 260930Z 12003MPS 090V160 9999 OVC009 M02/M04 Q1008 R08/920350 NOSIG RMK QFE755/1007

IFR

-2°C / -4°C

[Víc]
Vítr 120º variable 080º to 150º 8kt
Viditelnost >10km
Počasí -
Oblaky Broken Clouds 900ft
Tlak 1008
Změna No Significant change. Runway 08: Frozen ridges, 11-25% contamination with 3mm, friction coefficient 0.50.
Nezpracované ULAA 260900Z 12004MPS 080V150 9999 BKN009 M02/M04 Q1008 R08/920350 NOSIG RMK QFE755/1007

IFR

-3°C / -4°C

[Víc]
Vítr 120º variable 080º to 150º 8kt
Viditelnost >10km
Počasí -
Oblaky Broken Clouds 900ft
Tlak 1008
Změna No Significant change. Runway 08: Frozen ridges, 11-25% contamination with 3mm, friction coefficient 0.50.
Nezpracované ULAA 260830Z 12004MPS 080V150 9999 BKN009 M03/M04 Q1008 R08/920350 NOSIG RMK QFE755/1007

IFR

-3°C / -4°C

[Víc]
Vítr 130º variable 090º to 160º 6kt
Viditelnost >10km
Počasí -
Oblaky Broken Clouds 900ft
Tlak 1009
Změna No Significant change. Runway 08: Frozen ridges, 11-25% contamination with 3mm, friction coefficient 0.50.
Nezpracované ULAA 260800Z 13003MPS 090V160 9999 BKN009 M03/M04 Q1009 R08/920350 NOSIG RMK QFE755/1007

IFR

-3°C / -5°C

[Víc]
Vítr 120º variable 100º to 160º 6kt
Viditelnost >10km
Počasí -
Oblaky Broken Clouds 900ft
Tlak 1009
Změna No Significant change. Runway 08: Frozen ridges, 11-25% contamination with 3mm, friction coefficient 0.50.
Nezpracované ULAA 260730Z 12003MPS 100V160 9999 BKN009 M03/M05 Q1009 R08/920350 NOSIG RMK QFE755/1007

MVFR

-3°C / -5°C

[Víc]
Vítr 120º variable 080º to 150º 6kt
Viditelnost >10km
Počasí -
Oblaky Broken Clouds 1100ft
Tlak 1009
Změna No Significant change. Runway 08: Frozen ridges, 11-25% contamination with 3mm, friction coefficient 0.50.
Nezpracované ULAA 260700Z 12003MPS 080V150 9999 BKN011 M03/M05 Q1009 R08/920350 NOSIG RMK QFE755/1007

VFR

-4°C / -5°C

[Víc]
Vítr 110º 6kt
Viditelnost >10km
Počasí -
Oblaky Scattered Clouds 1000ft
Tlak 1009
Změna No Significant change. Runway 08: Frozen ridges, 11-25% contamination with 3mm, friction coefficient 0.50.
Nezpracované ULAA 260630Z 11003MPS 9999 SCT010 M04/M05 Q1009 R08/920350 NOSIG RMK QFE755/1007

VFR

-4°C / -5°C

[Víc]
Vítr 100º 4kt
Viditelnost >10km
Počasí -
Oblaky Few Clouds 3000ft
Tlak 1009
Změna No Significant change. Runway 08: Wet snow, 26-50% contamination with 1mm, friction coefficient 0.47.
Nezpracované ULAA 260600Z 10002MPS 9999 FEW030 M04/M05 Q1009 R08/550147 NOSIG RMK QFE755/1007

VFR

-5°C / -6°C

[Víc]
Vítr 110º 4kt
Viditelnost >10km
Počasí -
Oblaky Few Clouds 3000ft
Tlak 1009
Změna No Significant change. Runway 08: Wet snow, 26-50% contamination with 1mm, friction coefficient 0.47.
Nezpracované ULAA 260530Z 11002MPS 9999 FEW030 M05/M06 Q1009 R08/550147 NOSIG RMK QFE756/1008

VFR

-5°C / -6°C

[Víc]
Vítr 110º variable 080º to 140º 4kt
Viditelnost >10km
Počasí -
Oblaky Few Clouds 3000ft
Tlak 1009
Změna No Significant change. Runway 08: Wet snow, 26-50% contamination with 1mm, friction coefficient 0.47.
Nezpracované ULAA 260500Z 11002MPS 080V140 9999 FEW030 M05/M06 Q1009 R08/550147 NOSIG RMK QFE756/1008

VFR

-6°C / -7°C

[Víc]
Vítr 100º 4kt
Viditelnost >10km
Počasí -
Oblaky Few Clouds 2000ft
Tlak 1009
Změna No Significant change. Runway 08: Wet snow, 26-50% contamination with 1mm, friction coefficient 0.47.
Nezpracované ULAA 260430Z 10002MPS 9999 FEW020 M06/M07 Q1009 R08/550147 NOSIG RMK QFE756/1008

VFR

-6°C / -7°C

[Víc]
Vítr 80º 4kt
Viditelnost >10km
Počasí -
Oblaky Few Clouds 2000ft
Tlak 1009
Změna No Significant change. Runway 08: Wet snow, 26-50% contamination with 1mm, friction coefficient 0.47.
Nezpracované ULAA 260400Z 08002MPS 9999 FEW020 M06/M07 Q1009 R08/550147 NOSIG RMK QFE756/1008

VFR

-5°C / -6°C

[Víc]
Vítr 100º 4kt
Viditelnost >10km
Počasí -
Oblaky Few Clouds 2000ft
Tlak 1009
Změna No Significant change. Runway 08: Wet snow, 51-100% contamination with 1mm, friction coefficient 0.45.
Nezpracované ULAA 260330Z 10002MPS 9999 FEW020 M05/M06 Q1009 R08/590145 NOSIG RMK QFE756/1008

VFR

-4°C / -5°C

[Víc]
Vítr 110º 6kt
Viditelnost >10km
Počasí -
Oblaky Few Clouds 2000ft
Tlak 1009
Změna No Significant change. Runway 08: Wet snow, 51-100% contamination with 1mm, friction coefficient 0.45.
Nezpracované ULAA 260300Z 11003MPS 9999 FEW020 M04/M05 Q1009 R08/590145 NOSIG RMK QFE756/1008

VFR

-4°C / -5°C

[Víc]
Vítr 100º variable 080º to 170º 6kt
Viditelnost >10km
Počasí -
Oblaky Scattered Clouds 2000ft
Tlak 1010
Změna No Significant change. Runway 08: Wet snow, 51-100% contamination with 1mm, friction coefficient 0.45.
Nezpracované ULAA 260230Z 10003MPS 080V170 9999 SCT020 M04/M05 Q1010 R08/590145 NOSIG RMK QFE756/1008

VFR

-4°C / -5°C

[Víc]
Vítr 100º 6kt
Viditelnost >10km
Počasí -
Oblaky Scattered Clouds 2000ft
Tlak 1010
Změna No Significant change. Runway 08: Wet snow, 51-100% contamination with 1mm, friction coefficient 0.45.
Nezpracované ULAA 260200Z 10003MPS 9999 SCT020 M04/M05 Q1010 R08/590145 NOSIG RMK QFE756/1009

MVFR

-4°C / -5°C

[Víc]
Vítr 110º 6kt
Viditelnost 8000m
Počasí Light Snow 1.00mm precipitation
Oblaky Vertical Visibility of 0ft.
Tlak 1010
Změna No Significant change. Runway 08: Wet snow, 51-100% contamination with 1mm, friction coefficient 0.45.
Nezpracované ULAA 260130Z 11003MPS 8000 -SN OVC014 M04/M05 Q1010 R08/590145 NOSIG RMK QFE756/1009

MVFR

-4°C / -5°C

[Víc]
Vítr 110º 6kt
Viditelnost >10km
Počasí Light Snow 1.00mm precipitation
Oblaky Vertical Visibility of 0ft.
Tlak 1010
Změna No Significant change. Runway 08: Wet snow, 51-100% contamination with 1mm, friction coefficient 0.45.
Nezpracované ULAA 260100Z 11003MPS 9999 -SN OVC018 M04/M05 Q1010 R08/590145 NOSIG RMK QFE757/1009

MVFR

-4°C / -5°C

[Víc]
Vítr 100º variable 070º to 200º 6kt
Viditelnost >10km
Počasí Light Snow 1.00mm precipitation
Oblaky Vertical Visibility of 0ft.
Tlak 1010
Změna No Significant change. Runway 08: Frozen ridges, 11-25% contamination with 3mm, friction coefficient 0.50.
Nezpracované ULAA 260030Z 10003MPS 070V200 9999 -SN OVC020 M04/M05 Q1010 R08/920350 NOSIG RMK QFE757/1009

MVFR

-4°C / -5°C

[Víc]
Vítr 100º variable 060º to 130º 6kt
Viditelnost >10km
Počasí -
Oblaky Overcast 2100ft
Tlak 1010
Změna No Significant change. Runway 08: Frozen ridges, 11-25% contamination with 3mm, friction coefficient 0.50.
Nezpracované ULAA 260000Z 10003MPS 060V130 9999 OVC021 M04/M05 Q1010 R08/920350 NOSIG RMK QFE757/1009

VFR

-4°C / -5°C

[Víc]
Vítr 80º 6kt
Viditelnost >10km
Počasí -
Oblaky Scattered Clouds 2600ft
Tlak 1010
Změna No Significant change. Runway 08: Frozen ridges, 11-25% contamination with 3mm, friction coefficient 0.50.
Nezpracované ULAA 252330Z 08003MPS 9999 SCT026 M04/M05 Q1010 R08/920350 NOSIG RMK QFE757/1009

VFR

-4°C / -5°C

[Víc]
Vítr 90º variable 070º to 130º 6kt
Viditelnost >10km
Počasí -
Oblaky Scattered Clouds 2600ft
Tlak 1010
Změna No Significant change. Runway 08: Frozen ridges, 11-25% contamination with 3mm, friction coefficient 0.50.
Nezpracované ULAA 252300Z 09003MPS 070V130 9999 SCT026 M04/M05 Q1010 R08/920350 NOSIG RMK QFE757/1009

VFR

-4°C / -5°C

[Víc]
Vítr 100º 6kt
Viditelnost >10km
Počasí -
Oblaky Scattered Clouds 2600ft
Tlak 1011
Změna No Significant change. Runway 08: Frozen ridges, 11-25% contamination with 3mm, friction coefficient 0.50.
Nezpracované ULAA 252230Z 10003MPS 9999 SCT026 M04/M05 Q1011 R08/920350 NOSIG RMK QFE757/1010

VFR

-4°C / -5°C

[Víc]
Vítr 90º 4kt
Viditelnost >10km
Počasí -
Oblaky Scattered Clouds 2600ft
Tlak 1011
Změna No Significant change. Runway 08: Frozen ridges, 11-25% contamination with 3mm, friction coefficient 0.50.
Nezpracované ULAA 252200Z 09002MPS 9999 SCT026 M04/M05 Q1011 R08/920350 NOSIG RMK QFE757/1010

TAF pro 64.6°S 40.72°V (ULAA)

From till


From till Wind 130º 6kt. Visibility 8000m. Few Clouds 700ft. Broken Clouds 1100ft.
Temporarly from till Wind 150º 6kt. Gust 16kt. Visibility 4000m. Light Showers Snow . Scattered Clouds 700ft. Broken Clouds 1100ft.
Temporarly from till Wind 170º 6kt. Visibility 997.791m. Showers Snow Mist . Broken Clouds 300ft. Broken Clouds 1100ft.
With 40% probability, Temporarly from till freezing Drizzle .
Temporarly from till Wind 200º 6kt. Gust 19kt. Visibility 6000m. Light Showers Snow Light Showers Rain . Few Clouds 500ft. Broken Clouds 1600ft.

Nezpracované: TAF AMD ULAA 260910Z 2609/2709 13003MPS 8000 FEW007 BKN011 TEMPO 2609/2613 15003G08MPS 4000 -SHSN SCT007 BKN011CB TEMPO 2613/2701 17003MPS 1000 SHSN BR BKN003 BKN011CB PROB40 TEMPO 2614/2701 FZDZ TEMPO 2701/2709 20003G10MPS 6000 -SHSNRA FEW005 BKN016CB

Aktuální snímky ze satelitu a srážky pro 64.6°S 40.72°V

Značka polohy je umístěna na 64.6°S 40.72°V. [Víc]

Satelitní snímek v reálném čase kombinuje viditelné světlo během dne s infračerveným zářením během noci. V noci není obraz tmavý, protože infračervené záření dokáže detekovat teplotní rozdíly. Nízká oblačnost a mlha se bohužel těžko odlišují od pozemních teplot, a proto mohou být během noci téměř neviditelné. Satelitní snímky z Meteosatu pro Evropu jsou aktualizovány v reálném čase každých 5 minut. Snímky z GOES-16/GOES-17 (Severní a Jižní Amerika) a Himawari (Asie) jsou aktualizovány) každých 10 minut.

Copyright 2021 EUMETSAT / meteoblue. / Copyright 2021 meteoblue

Radar a krátkodobá předpověď srážek pro 64.6°S 40.72°V

Mrholení
Slabé
Střední
Silné
Velmi silné
Kroupy

Značka lokality je umístněna na 64.6°S 40.72°V. Tato animace ukazuje srážky zaznamenané radarem za poslední hodinu a také 1h předpověď. Mrholení nebo slabé sněžení může být pro radar neviditelné. Intenzita srážek je barevně označena od světle modré po oranžovou.